createdAt,value
2023-02-01T00:01:50.301Z,13.65
2023-02-01T00:04:17.886Z,16.42
2023-02-01T00:06:45.462Z,9.32
2023-02-01T00:09:13.161Z,13.02
2023-02-01T00:11:40.621Z,16.02
2023-02-01T00:14:09.018Z,15.38
2023-02-01T00:16:37.895Z,13.88
2023-02-01T00:19:06.441Z,19.00
2023-02-01T00:21:34.252Z,8.10
2023-02-01T00:24:01.809Z,9.18
2023-02-01T00:26:33.791Z,10.32
2023-02-01T00:29:01.872Z,11.55
2023-02-01T00:31:30.143Z,11.13
2023-02-01T00:33:59.057Z,11.05
2023-02-01T00:36:26.619Z,13.50
2023-02-01T00:38:54.303Z,12.23
2023-02-01T00:41:22.956Z,17.20
2023-02-01T00:43:50.815Z,18.30
2023-02-01T00:46:19.413Z,25.33
2023-02-01T00:48:47.176Z,21.92
2023-02-01T00:51:17.004Z,18.67
2023-02-01T00:53:44.753Z,19.52
2023-02-01T00:56:12.254Z,21.55
2023-02-01T00:58:39.798Z,23.35
2023-02-01T01:01:08.911Z,11.88
2023-02-01T01:03:38.037Z,22.77
2023-02-01T01:06:07.331Z,17.48
2023-02-01T01:08:38.523Z,12.27
2023-02-01T01:11:06.683Z,15.57
2023-02-01T01:13:34.560Z,15.68
2023-02-01T01:16:03.531Z,18.25
2023-02-01T01:18:31.645Z,19.67
2023-02-01T01:20:59.656Z,20.80
2023-02-01T01:23:27.625Z,28.33
2023-02-01T01:25:56.550Z,20.63
2023-02-01T01:28:24.107Z,17.45
2023-02-01T01:30:52.053Z,24.63
2023-02-01T01:33:19.952Z,17.00
2023-02-01T01:35:47.418Z,17.67
2023-02-01T01:38:15.234Z,20.65
2023-02-01T01:40:46.210Z,24.80
2023-02-01T01:43:16.546Z,14.20
2023-02-01T01:45:44.156Z,27.48
2023-02-01T01:48:15.416Z,24.17
2023-02-01T01:50:44.601Z,22.20
2023-02-01T01:53:14.104Z,22.00
2023-02-01T01:55:44.679Z,20.73
2023-02-01T01:58:13.953Z,20.42
2023-02-01T02:00:43.051Z,21.52
2023-02-01T02:03:13.647Z,19.60
2023-02-01T02:05:41.288Z,21.83
2023-02-01T02:08:09.891Z,20.77
2023-02-01T02:10:55.913Z,19.88
2023-02-01T02:13:23.851Z,17.73
2023-02-01T02:15:57.079Z,22.45
2023-02-01T02:18:28.882Z,15.82
2023-02-01T02:21:17.775Z,16.65
2023-02-01T02:24:03.892Z,19.63
2023-02-01T02:26:40.559Z,18.33
2023-02-01T02:29:35.474Z,20.20
2023-02-01T02:32:23.745Z,20.23
2023-02-01T02:34:54.718Z,20.80
2023-02-01T02:37:28.776Z,18.92
2023-02-01T02:39:59.708Z,24.45
2023-02-01T02:42:49.847Z,17.70
2023-02-01T02:45:39.366Z,18.23
2023-02-01T02:48:11.787Z,23.33
2023-02-01T02:51:01.062Z,16.45
2023-02-01T02:53:50.148Z,14.10
2023-02-01T02:56:36.172Z,12.75
2023-02-01T02:59:21.886Z,16.92
2023-02-01T03:02:08.174Z,17.80
2023-02-01T03:04:35.797Z,12.60
2023-02-01T03:07:14.017Z,13.48
2023-02-01T03:09:42.529Z,11.93
2023-02-01T03:12:30.416Z,13.52
2023-02-01T03:15:01.837Z,14.65
2023-02-01T03:17:32.451Z,16.33
2023-02-01T03:20:02.515Z,15.18
2023-02-01T03:22:32.633Z,16.38
2023-02-01T03:25:03.475Z,20.83
2023-02-01T03:27:33.898Z,17.05
2023-02-01T03:30:03.767Z,15.40
2023-02-01T03:32:51.593Z,21.73
2023-02-01T03:35:20.032Z,14.45
2023-02-01T03:37:49.798Z,12.15
2023-02-01T03:40:19.959Z,15.13
2023-02-01T03:42:50.701Z,14.15
2023-02-01T03:45:21.748Z,16.90
2023-02-01T03:47:51.636Z,11.93
2023-02-01T03:50:22.870Z,9.90
2023-02-01T03:52:54.547Z,7.35
2023-02-01T03:55:24.002Z,5.68
2023-02-01T03:57:54.030Z,6.70
2023-02-01T04:00:24.256Z,7.40
2023-02-01T04:02:52.413Z,7.07
2023-02-01T04:05:20.161Z,12.43
2023-02-01T04:07:57.074Z,12.77
2023-02-01T04:10:24.936Z,10.40
2023-02-01T04:12:53.046Z,9.82
2023-02-01T04:15:20.564Z,8.35
2023-02-01T04:17:48.076Z,6.45
2023-02-01T04:20:15.635Z,12.77
2023-02-01T04:22:43.156Z,6.45
2023-02-01T04:25:12.181Z,9.52
2023-02-01T04:30:10.487Z,10.15
2023-02-01T04:32:38.177Z,18.25
2023-02-01T04:35:06.180Z,11.75
2023-02-01T04:37:33.723Z,9.15
2023-02-01T04:40:01.325Z,10.13
2023-02-01T04:42:30.163Z,16.45
2023-02-01T04:44:57.878Z,12.38
2023-02-01T04:47:25.495Z,11.55
2023-02-01T04:49:52.978Z,10.25
2023-02-01T04:52:20.525Z,11.65
2023-02-01T04:54:48.060Z,9.07
2023-02-01T04:57:15.912Z,8.52
2023-02-01T04:59:44.976Z,11.35
2023-02-01T05:02:12.543Z,14.57
2023-02-01T05:04:40.094Z,6.40
2023-02-01T05:07:07.638Z,7.63
2023-02-01T05:09:35.102Z,5.82
2023-02-01T05:12:20.343Z,3.63
2023-02-01T05:14:49.948Z,6.03
2023-02-01T05:17:17.501Z,4.72
2023-02-01T05:19:45.022Z,9.07
2023-02-01T05:22:12.633Z,5.13
2023-02-01T05:24:40.351Z,7.32
2023-02-01T05:27:07.891Z,5.35
2023-02-01T05:29:35.456Z,7.25
2023-02-01T05:32:20.559Z,6.10
2023-02-01T05:34:49.059Z,9.07
2023-02-01T05:37:16.561Z,5.22
2023-02-01T05:39:44.266Z,7.93
2023-02-01T05:42:12.008Z,2.38
2023-02-01T05:44:39.796Z,7.30
2023-02-01T05:47:08.789Z,4.53
2023-02-01T05:49:36.329Z,1.73
2023-02-01T05:52:03.925Z,3.30
2023-02-01T05:54:31.758Z,1.25
2023-02-01T05:56:59.300Z,2.90
2023-02-01T05:59:27.176Z,1.42
2023-02-01T06:01:54.724Z,2.42
2023-02-01T06:04:23.902Z,2.42
2023-02-01T06:06:52.066Z,5.20
2023-02-01T06:09:19.632Z,1.92
2023-02-01T06:11:47.204Z,2.17
2023-02-01T06:14:14.740Z,4.90
2023-02-01T06:16:42.209Z,2.30
2023-02-01T06:19:09.758Z,2.47
2023-02-01T06:21:38.718Z,5.93
2023-02-01T06:24:07.079Z,2.58
2023-02-01T06:26:34.764Z,3.70
2023-02-01T06:29:02.313Z,2.88
2023-02-01T06:31:30.081Z,6.63
2023-02-01T06:33:58.231Z,2.28
2023-02-01T06:36:25.797Z,4.25
2023-02-01T06:38:54.868Z,3.53
2023-02-01T06:41:22.605Z,1.30
2023-02-01T06:43:50.091Z,3.20
2023-02-01T06:46:17.729Z,6.38
2023-02-01T06:48:46.853Z,4.30
2023-02-01T06:51:22.449Z,5.10
2023-02-01T06:53:49.959Z,7.22
2023-02-01T06:56:18.905Z,4.57
2023-02-01T06:58:46.898Z,4.88
2023-02-01T07:01:15.164Z,9.02
2023-02-01T07:03:42.930Z,6.93
2023-02-01T07:06:11.180Z,5.95
2023-02-01T07:08:39.595Z,12.05
2023-02-01T07:11:07.758Z,6.72
2023-02-01T07:13:39.424Z,10.73
2023-02-01T07:16:08.456Z,12.77
2023-02-01T07:18:36.050Z,10.43
2023-02-01T07:21:03.542Z,15.05
2023-02-01T07:23:31.291Z,13.20
2023-02-01T07:25:59.458Z,16.08
2023-02-01T07:28:27.657Z,14.45
2023-02-01T07:30:56.522Z,15.57
2023-02-01T07:33:27.713Z,16.42
2023-02-01T07:35:55.682Z,18.75
2023-02-01T07:38:24.631Z,15.98
2023-02-01T07:40:52.471Z,26.20
2023-02-01T07:43:20.002Z,13.90
2023-02-01T07:45:52.363Z,13.55
2023-02-01T07:48:21.519Z,14.82
2023-02-01T07:50:49.279Z,20.02
2023-02-01T07:53:16.736Z,20.00
2023-02-01T07:55:44.263Z,13.13
2023-02-01T07:58:11.956Z,24.13
2023-02-01T08:00:56.906Z,13.65
2023-02-01T08:03:25.761Z,26.35
2023-02-01T08:05:55.714Z,20.40
2023-02-01T08:08:23.484Z,14.38
2023-02-01T08:10:51.025Z,17.75
2023-02-01T08:13:18.769Z,16.98
2023-02-01T08:15:46.489Z,16.23
2023-02-01T08:18:17.127Z,23.25
2023-02-01T08:20:46.491Z,13.48
2023-02-01T08:23:14.283Z,16.08
2023-02-01T08:25:42.094Z,17.27
2023-02-01T08:28:09.709Z,25.25
2023-02-01T08:30:39.142Z,22.83
2023-02-01T08:33:07.879Z,21.38
2023-02-01T08:35:43.407Z,19.90
2023-02-01T08:38:12.909Z,21.17
2023-02-01T08:40:42.296Z,15.88
2023-02-01T08:43:09.791Z,10.27
2023-02-01T08:45:37.398Z,9.23
2023-02-01T08:48:05.029Z,8.48
2023-02-01T08:50:32.564Z,6.20
2023-02-01T08:53:00.372Z,7.32
2023-02-01T08:55:29.589Z,12.00
2023-02-01T08:57:58.009Z,12.23
2023-02-01T09:00:25.948Z,7.68
2023-02-01T09:02:53.648Z,7.40
2023-02-01T09:05:23.469Z,10.02
2023-02-01T09:07:51.074Z,7.68
2023-02-01T09:10:33.574Z,9.48
2023-02-01T09:13:04.021Z,9.10
2023-02-01T09:15:32.964Z,5.20
2023-02-01T09:18:00.816Z,13.70
2023-02-01T09:20:28.351Z,6.03
2023-02-01T09:22:57.081Z,8.52
2023-02-01T09:25:24.880Z,8.57
2023-02-01T09:27:52.554Z,13.63
2023-02-01T09:30:21.747Z,9.73
2023-02-01T09:32:49.508Z,18.30
2023-02-01T09:35:17.303Z,9.95
2023-02-01T09:37:44.936Z,10.95
2023-02-01T09:40:15.608Z,12.38
2023-02-01T09:42:50.032Z,10.80
2023-02-01T09:45:22.345Z,17.08
2023-02-01T09:47:52.198Z,11.50
2023-02-01T09:50:22.489Z,14.32
2023-02-01T09:52:54.468Z,13.52
2023-02-01T09:55:25.320Z,13.25
2023-02-01T09:57:57.002Z,11.40
2023-02-01T10:00:27.879Z,16.98
2023-02-01T10:02:56.122Z,14.23
2023-02-01T10:05:29.649Z,15.73
2023-02-01T10:08:03.016Z,20.08
2023-02-01T10:10:33.103Z,18.55
2023-02-01T10:13:07.428Z,14.77
2023-02-01T10:15:43.477Z,16.92
2023-02-01T10:18:27.148Z,15.40
2023-02-01T10:20:58.449Z,20.00
2023-02-01T10:23:34.988Z,15.40
2023-02-01T10:26:04.715Z,20.00
2023-02-01T10:28:36.249Z,17.25
2023-02-01T10:31:05.767Z,11.25
2023-02-01T10:33:35.533Z,10.98
2023-02-01T10:36:04.619Z,14.70
2023-02-01T10:38:33.918Z,16.85
2023-02-01T10:41:03.790Z,18.58
2023-02-01T10:43:31.979Z,15.40
2023-02-01T10:45:59.715Z,14.90
2023-02-01T10:48:31.080Z,16.88
2023-02-01T10:51:00.462Z,20.00
2023-02-01T10:53:31.893Z,20.38
2023-02-01T10:55:59.509Z,14.30
2023-02-01T10:58:28.764Z,14.98
2023-02-01T11:00:58.727Z,16.27
2023-02-01T11:03:38.861Z,12.05
2023-02-01T11:06:11.738Z,18.35
2023-02-01T11:08:44.867Z,19.60
2023-02-01T11:11:12.849Z,12.68
2023-02-01T11:13:41.233Z,16.88
2023-02-01T11:16:13.042Z,21.20
2023-02-01T11:18:42.430Z,14.88
2023-02-01T11:21:11.079Z,15.27
2023-02-01T11:23:42.705Z,15.52
2023-02-01T11:26:12.639Z,11.52
2023-02-01T11:28:41.549Z,10.45
2023-02-01T11:31:11.069Z,15.30
2023-02-01T11:33:40.044Z,11.65
2023-02-01T11:36:14.229Z,13.25
2023-02-01T11:38:41.822Z,12.05
2023-02-01T11:41:15.928Z,11.93
2023-02-01T11:43:52.888Z,21.80
2023-02-01T11:46:25.867Z,10.10
2023-02-01T11:48:54.333Z,10.57
2023-02-01T11:51:27.626Z,9.45
2023-02-01T11:54:03.192Z,13.07
2023-02-01T11:56:33.873Z,11.00
2023-02-01T11:59:19.874Z,10.82
2023-02-01T12:01:52.852Z,7.22
2023-02-01T12:04:40.532Z,10.82
2023-02-01T12:07:13.646Z,9.40
2023-02-01T12:09:59.337Z,6.97
2023-02-01T12:12:27.658Z,17.13
2023-02-01T12:15:02.169Z,11.55
2023-02-01T12:17:43.695Z,14.55
2023-02-01T12:20:23.388Z,8.68
2023-02-01T12:22:59.064Z,7.03
2023-02-01T12:25:32.299Z,14.10
2023-02-01T12:28:08.563Z,7.57
2023-02-01T12:30:43.115Z,6.50
2023-02-01T12:33:16.785Z,5.00
2023-02-01T12:35:51.714Z,5.18
2023-02-01T12:38:32.248Z,4.38
2023-02-01T12:41:06.764Z,9.38
2023-02-01T12:43:39.105Z,3.15
2023-02-01T12:46:09.379Z,3.60
2023-02-01T12:48:38.925Z,5.20
2023-02-01T12:51:06.994Z,4.05
2023-02-01T12:53:46.353Z,2.22
2023-02-01T12:56:17.497Z,2.08
2023-02-01T12:58:47.628Z,2.45
2023-02-01T13:01:17.950Z,2.92
2023-02-01T13:03:52.070Z,4.47
2023-02-01T13:06:21.769Z,5.20
2023-02-01T13:08:52.678Z,1.83
2023-02-01T13:11:22.652Z,3.53
2023-02-01T13:13:55.861Z,5.43
2023-02-01T13:16:28.050Z,3.25
2023-02-01T13:18:57.948Z,6.30
2023-02-01T13:21:27.390Z,2.83
2023-02-01T13:23:56.609Z,4.05
2023-02-01T13:26:24.242Z,2.35
2023-02-01T13:28:53.919Z,4.22
2023-02-01T13:31:37.092Z,3.75
2023-02-01T13:34:17.737Z,2.60
2023-02-01T13:36:52.525Z,3.60
2023-02-01T13:39:37.720Z,2.00
2023-02-01T13:42:08.028Z,1.13
2023-02-01T13:44:39.722Z,2.15
2023-02-01T13:47:15.105Z,1.73
2023-02-01T13:49:42.945Z,2.08
2023-02-01T13:52:24.829Z,2.28
2023-02-01T13:55:02.585Z,4.10
2023-02-01T13:57:38.522Z,2.50
2023-02-01T14:00:11.850Z,4.22
2023-02-01T14:02:48.143Z,3.85
2023-02-01T14:05:39.622Z,4.78
2023-02-01T14:08:13.653Z,10.70
2023-02-01T14:10:51.652Z,3.27
2023-02-01T14:13:26.623Z,10.65
2023-02-01T14:16:18.453Z,6.43
2023-02-01T14:19:02.446Z,4.43
2023-02-01T14:21:31.510Z,6.90
2023-02-01T14:24:01.024Z,4.15
2023-02-01T14:26:29.975Z,5.22
2023-02-01T14:29:04.130Z,3.33
2023-02-01T14:31:46.994Z,2.97
2023-02-01T14:34:17.363Z,2.17
2023-02-01T14:36:46.509Z,5.60
2023-02-01T14:39:25.009Z,3.55
2023-02-01T14:41:54.691Z,4.30
2023-02-01T14:44:31.521Z,3.83
2023-02-01T14:47:12.819Z,3.97
2023-02-01T14:49:44.585Z,5.32
2023-02-01T14:52:14.814Z,3.92
2023-02-01T14:54:42.755Z,5.13
2023-02-01T14:57:16.135Z,7.82
2023-02-01T14:59:46.849Z,5.32
2023-02-01T15:02:20.796Z,5.45
2023-02-01T15:04:48.722Z,3.58
2023-02-01T15:07:17.843Z,11.90
2023-02-01T15:09:47.557Z,4.75
2023-02-01T15:12:18.317Z,13.30
2023-02-01T15:14:50.131Z,8.77
2023-02-01T15:17:22.114Z,9.32
2023-02-01T15:19:56.365Z,6.85
2023-02-01T15:22:23.979Z,9.63
2023-02-01T15:24:54.101Z,7.07
2023-02-01T15:27:23.735Z,6.32
2023-02-01T15:29:52.573Z,14.30
2023-02-01T15:32:30.523Z,8.02
2023-02-01T15:34:58.077Z,11.82
2023-02-01T15:37:25.643Z,9.63
2023-02-01T15:40:06.029Z,10.27
2023-02-01T15:42:33.804Z,11.15
2023-02-01T15:45:02.840Z,12.60
2023-02-01T15:47:31.775Z,11.82
2023-02-01T15:50:00.612Z,17.98
2023-02-01T15:52:32.816Z,11.73
2023-02-01T15:55:01.819Z,10.02
2023-02-01T15:57:32.342Z,15.75
2023-02-01T16:00:00.974Z,13.05
2023-02-01T16:02:34.422Z,13.45
2023-02-01T16:05:02.869Z,12.23
2023-02-01T16:07:31.609Z,16.10
2023-02-01T16:10:00.082Z,15.65
2023-02-01T16:12:32.725Z,18.88
2023-02-01T16:15:00.257Z,23.95
2023-02-01T16:17:27.807Z,15.77
2023-02-01T16:19:58.101Z,11.02
2023-02-01T16:22:25.832Z,23.27
2023-02-01T16:24:53.395Z,18.75
2023-02-01T16:27:23.189Z,17.63
2023-02-01T16:29:50.996Z,15.40
2023-02-01T16:32:19.445Z,18.08
2023-02-01T16:34:47.239Z,24.65
2023-02-01T16:37:17.693Z,14.63
2023-02-01T16:39:45.284Z,16.58
2023-02-01T16:42:13.061Z,13.90
2023-02-01T16:44:40.690Z,29.00
2023-02-01T16:47:12.975Z,24.33
2023-02-01T16:49:42.510Z,16.33
2023-02-01T16:52:13.748Z,25.92
2023-02-01T16:54:42.729Z,23.65
2023-02-01T16:57:13.283Z,18.23
2023-02-01T16:59:41.008Z,17.40
2023-02-01T17:02:11.774Z,20.20
2023-02-01T17:04:39.648Z,23.60
2023-02-01T17:07:10.358Z,22.90
2023-02-01T17:09:38.276Z,23.58
2023-02-01T17:12:16.969Z,16.13
2023-02-01T17:14:44.666Z,16.98
2023-02-01T17:17:12.323Z,21.02
2023-02-01T17:19:40.066Z,20.48
2023-02-01T17:22:07.762Z,24.05
2023-02-01T17:24:46.827Z,29.30
2023-02-01T17:27:19.557Z,18.55
2023-02-01T17:29:48.356Z,20.48
2023-02-01T17:32:18.044Z,17.05
2023-02-01T17:34:46.068Z,15.45
2023-02-01T17:37:19.935Z,14.48
2023-02-01T17:39:56.691Z,20.13
2023-02-01T17:42:26.354Z,22.25
2023-02-01T17:44:56.604Z,16.23
2023-02-01T17:47:24.175Z,17.80
2023-02-01T17:49:56.318Z,19.73
2023-02-01T17:52:25.413Z,20.52
2023-02-01T17:54:54.070Z,23.10
2023-02-01T17:57:22.329Z,19.25
2023-02-01T17:59:51.222Z,15.55
2023-02-01T18:02:20.118Z,13.00
2023-02-01T18:04:47.987Z,13.40
2023-02-01T18:07:15.579Z,28.92
2023-02-01T18:09:43.279Z,19.15
2023-02-01T18:12:16.449Z,21.17
2023-02-01T18:14:44.333Z,23.17
2023-02-01T18:17:13.226Z,20.17
2023-02-01T18:19:40.889Z,22.92
2023-02-01T18:22:11.203Z,24.88
2023-02-01T18:24:39.013Z,30.15
2023-02-01T18:27:06.675Z,16.40
2023-02-01T18:29:34.482Z,25.02
2023-02-01T18:32:03.402Z,21.90
2023-02-01T18:34:32.355Z,26.52
2023-02-01T18:37:00.506Z,23.98
2023-02-01T18:39:28.183Z,16.30
2023-02-01T18:41:55.689Z,16.85
2023-02-01T18:44:24.080Z,30.70
2023-02-01T18:46:51.634Z,25.60
2023-02-01T18:49:19.738Z,28.33
2023-02-01T18:51:48.879Z,21.88
2023-02-01T18:54:16.407Z,21.08
2023-02-01T18:56:44.107Z,20.52
2023-02-01T18:59:12.207Z,15.60
2023-02-01T19:01:39.799Z,13.60
2023-02-01T19:04:11.226Z,18.73
2023-02-01T19:06:50.656Z,19.27
2023-02-01T19:09:18.357Z,20.55
2023-02-01T19:11:45.832Z,19.92
2023-02-01T19:14:13.641Z,17.42
2023-02-01T19:16:41.154Z,17.77
2023-02-01T19:19:09.858Z,14.55
2023-02-01T19:21:37.368Z,20.88
2023-02-01T19:24:06.792Z,20.40
2023-02-01T19:26:35.004Z,16.23
2023-02-01T19:29:02.623Z,15.65
2023-02-01T19:31:30.535Z,13.80
2023-02-01T19:33:58.157Z,9.18
2023-02-01T19:36:26.731Z,8.20
2023-02-01T19:38:54.580Z,8.38
2023-02-01T19:41:23.560Z,6.13
2023-02-01T19:43:51.242Z,5.85
2023-02-01T19:46:18.893Z,4.30
2023-02-01T19:48:46.451Z,7.05
2023-02-01T19:51:14.176Z,6.95
2023-02-01T19:53:41.770Z,6.55
2023-02-01T19:56:09.363Z,7.65
2023-02-01T19:58:38.371Z,9.98
2023-02-01T20:01:06.094Z,7.95
2023-02-01T20:03:33.584Z,12.18
2023-02-01T20:06:02.268Z,13.90
2023-02-01T20:08:29.943Z,12.55
2023-02-01T20:10:57.972Z,11.10
2023-02-01T20:13:25.494Z,12.23
2023-02-01T20:15:59.295Z,12.98
2023-02-01T20:18:27.299Z,12.13
2023-02-01T20:20:55.927Z,15.48
2023-02-01T20:23:23.477Z,19.45
2023-02-01T20:25:51.997Z,15.40
2023-02-01T20:28:19.562Z,21.38
2023-02-01T20:30:47.578Z,15.15
2023-02-01T20:33:16.855Z,19.48
2023-02-01T20:35:45.273Z,18.48
2023-02-01T20:38:14.964Z,18.05
2023-02-01T20:40:42.614Z,23.95
2023-02-01T20:43:10.192Z,19.67
2023-02-01T20:45:39.937Z,17.23
2023-02-01T20:48:07.466Z,15.90
2023-02-01T20:50:37.197Z,24.00
2023-02-01T20:53:04.772Z,22.88
2023-02-01T20:55:32.791Z,18.13
2023-02-01T20:58:00.369Z,22.55
2023-02-01T21:00:30.576Z,22.17
2023-02-01T21:02:58.208Z,15.57
2023-02-01T21:05:39.740Z,23.40
2023-02-01T21:08:09.129Z,18.02
2023-02-01T21:10:37.376Z,12.68
2023-02-01T21:13:05.628Z,12.15
2023-02-01T21:15:34.592Z,12.38
2023-02-01T21:18:02.394Z,15.90
2023-02-01T21:20:30.168Z,17.88
2023-02-01T21:22:57.812Z,26.85
2023-02-01T21:25:26.755Z,14.32
2023-02-01T21:27:54.281Z,27.30
2023-02-01T21:30:22.109Z,19.60
2023-02-01T21:32:50.053Z,18.02
2023-02-01T21:35:18.197Z,17.80
2023-02-01T21:37:46.010Z,14.93
2023-02-01T21:40:14.520Z,18.85
2023-02-01T21:42:45.522Z,19.95
2023-02-01T21:45:13.201Z,19.70
2023-02-01T21:47:40.724Z,21.88
2023-02-01T21:50:10.513Z,21.15
2023-02-01T21:52:39.345Z,21.55
2023-02-01T21:55:07.418Z,20.33
2023-02-01T21:57:35.268Z,19.10
2023-02-01T22:00:05.369Z,16.35
2023-02-01T22:02:33.059Z,22.95
2023-02-01T22:05:00.600Z,15.40
2023-02-01T22:07:28.544Z,17.05
2023-02-01T22:09:56.028Z,16.10
2023-02-01T22:12:24.122Z,13.65
2023-02-01T22:14:52.387Z,13.02
2023-02-01T22:17:21.325Z,15.13
2023-02-01T22:19:48.793Z,15.32
2023-02-01T22:22:16.751Z,21.70
2023-02-01T22:24:44.600Z,17.90
2023-02-01T22:27:13.706Z,12.82
2023-02-01T22:29:42.930Z,19.10
2023-02-01T22:32:12.012Z,19.40
2023-02-01T22:34:41.011Z,19.02
2023-02-01T22:37:09.208Z,22.27
2023-02-01T22:39:37.739Z,17.77
2023-02-01T22:42:06.215Z,28.75
2023-02-01T22:44:33.756Z,17.25
2023-02-01T22:47:01.357Z,20.13
2023-02-01T22:49:28.844Z,19.25
2023-02-01T22:51:59.373Z,12.20
2023-02-01T22:54:26.859Z,11.63
2023-02-01T22:56:54.499Z,14.50
2023-02-01T22:59:22.185Z,20.85
2023-02-01T23:01:49.754Z,20.33
2023-02-01T23:04:17.572Z,16.73
2023-02-01T23:06:45.124Z,17.35
2023-02-01T23:09:16.743Z,14.75
2023-02-01T23:11:44.707Z,10.52
2023-02-01T23:14:13.180Z,22.33
2023-02-01T23:16:41.307Z,25.45
2023-02-01T23:19:08.796Z,19.85
2023-02-01T23:21:36.485Z,21.35
2023-02-01T23:24:07.182Z,16.33
2023-02-01T23:26:36.174Z,15.82
2023-02-01T23:29:04.340Z,17.73
2023-02-01T23:31:33.275Z,17.70
2023-02-01T23:34:01.754Z,18.58
2023-02-01T23:36:30.402Z,21.63
2023-02-01T23:38:58.854Z,16.63
2023-02-01T23:41:27.558Z,22.92
2023-02-01T23:43:59.406Z,16.67
2023-02-01T23:46:28.220Z,23.65
2023-02-01T23:48:55.988Z,15.82
2023-02-01T23:51:24.153Z,20.58
2023-02-01T23:53:51.987Z,20.13
2023-02-01T23:56:20.946Z,19.75
2023-02-01T23:58:48.795Z,15.48
